createdAt,value
2022-08-19T00:01:59.445Z,19.80
2022-08-19T00:04:31.773Z,19.90
2022-08-19T00:07:01.142Z,19.90
2022-08-19T00:09:30.392Z,19.90
2022-08-19T00:11:59.434Z,19.90
2022-08-19T00:14:33.222Z,20.00
2022-08-19T00:17:03.493Z,20.00
2022-08-19T00:19:32.335Z,19.90
2022-08-19T00:22:01.204Z,19.90
2022-08-19T00:24:29.709Z,19.90
2022-08-19T00:27:04.912Z,19.90
2022-08-19T00:29:52.625Z,19.90
2022-08-19T00:32:23.847Z,19.90
2022-08-19T00:34:54.067Z,19.90
2022-08-19T00:37:23.976Z,19.80
2022-08-19T00:39:53.193Z,19.80
2022-08-19T00:42:23.144Z,19.80
2022-08-19T00:44:52.443Z,19.80
2022-08-19T00:47:22.578Z,19.80
2022-08-19T00:49:55.888Z,19.80
2022-08-19T00:52:28.129Z,19.80
2022-08-19T00:54:57.903Z,19.70
2022-08-19T00:57:30.189Z,19.70
2022-08-19T01:00:03.069Z,19.70
2022-08-19T01:02:34.405Z,19.70
2022-08-19T01:05:05.986Z,19.70
2022-08-19T01:07:35.844Z,19.70
2022-08-19T01:10:08.898Z,19.70
2022-08-19T01:12:37.509Z,19.70
2022-08-19T01:15:06.521Z,19.70
2022-08-19T01:17:37.493Z,19.70
2022-08-19T01:20:08.605Z,19.70
2022-08-19T01:22:45.774Z,19.70
2022-08-19T01:25:16.804Z,19.70
2022-08-19T01:27:49.194Z,19.70
2022-08-19T01:30:20.035Z,19.70
2022-08-19T01:32:48.786Z,19.70
2022-08-19T01:35:19.602Z,19.70
2022-08-19T01:37:52.904Z,19.70
2022-08-19T01:40:24.817Z,19.70
2022-08-19T01:42:54.853Z,19.70
2022-08-19T01:45:25.989Z,19.80
2022-08-19T01:48:01.902Z,19.80
2022-08-19T01:50:32.666Z,19.80
2022-08-19T01:53:06.597Z,19.80
2022-08-19T01:55:41.156Z,19.80
2022-08-19T01:58:13.571Z,19.80
2022-08-19T02:00:42.393Z,19.80
2022-08-19T02:03:12.382Z,19.80
2022-08-19T02:05:41.206Z,19.80
2022-08-19T02:08:11.892Z,19.80
2022-08-19T02:10:42.670Z,19.80
2022-08-19T02:13:11.802Z,19.70
2022-08-19T02:15:40.746Z,19.70
2022-08-19T02:18:09.894Z,19.70
2022-08-19T02:20:39.681Z,19.70
2022-08-19T02:23:13.617Z,19.70
2022-08-19T02:25:49.065Z,19.70
2022-08-19T02:28:20.615Z,19.70
2022-08-19T02:30:50.003Z,19.70
2022-08-19T02:33:18.945Z,19.70
2022-08-19T02:35:48.331Z,19.70
2022-08-19T02:38:33.636Z,19.70
2022-08-19T02:41:06.892Z,19.70
2022-08-19T02:43:36.972Z,19.70
2022-08-19T02:46:14.474Z,19.70
2022-08-19T02:48:43.069Z,19.70
2022-08-19T02:51:17.375Z,19.70
2022-08-19T02:53:45.923Z,19.70
2022-08-19T02:56:16.048Z,19.70
2022-08-19T02:58:45.339Z,19.70
2022-08-19T03:01:22.894Z,19.70
2022-08-19T03:03:52.084Z,19.70
2022-08-19T03:06:20.465Z,19.70
2022-08-19T03:08:50.420Z,19.70
2022-08-19T03:11:22.899Z,19.80
2022-08-19T03:13:51.889Z,19.80
2022-08-19T03:16:20.945Z,19.80
2022-08-19T03:18:49.594Z,19.80
2022-08-19T03:21:18.697Z,19.80
2022-08-19T03:23:47.162Z,19.80
2022-08-19T03:26:17.073Z,19.80
2022-08-19T03:28:51.298Z,19.80
2022-08-19T03:31:45.626Z,19.80
2022-08-19T03:34:15.168Z,19.90
2022-08-19T03:36:43.629Z,19.90
2022-08-19T03:39:12.478Z,19.90
2022-08-19T03:41:44.918Z,19.90
2022-08-19T03:44:18.509Z,19.80
2022-08-19T03:46:49.035Z,19.80
2022-08-19T03:49:18.949Z,19.80
2022-08-19T03:51:51.272Z,19.90
2022-08-19T03:54:21.707Z,19.80
2022-08-19T03:56:51.787Z,19.90
2022-08-19T03:59:27.032Z,19.90
2022-08-19T04:01:56.119Z,19.90
2022-08-19T04:04:25.479Z,19.90
2022-08-19T04:06:58.199Z,19.80
2022-08-19T04:09:26.859Z,19.80
2022-08-19T04:11:57.049Z,19.90
2022-08-19T04:14:29.543Z,19.90
2022-08-19T04:16:58.683Z,19.90
2022-08-19T04:19:28.097Z,19.90
2022-08-19T04:21:57.615Z,19.90
2022-08-19T04:24:25.868Z,19.90
2022-08-19T04:26:54.146Z,19.90
2022-08-19T04:29:26.244Z,19.90
2022-08-19T04:31:57.641Z,19.90
2022-08-19T04:34:28.066Z,19.90
2022-08-19T04:36:58.180Z,20.00
2022-08-19T04:39:49.634Z,20.00
2022-08-19T04:42:37.237Z,19.90
2022-08-19T04:45:09.406Z,20.00
2022-08-19T04:47:48.306Z,20.00
2022-08-19T04:50:28.262Z,20.00
2022-08-19T04:52:57.426Z,19.90
2022-08-19T04:55:26.586Z,20.00
2022-08-19T04:57:55.095Z,20.00
2022-08-19T05:00:23.475Z,20.00
2022-08-19T05:02:53.318Z,20.10
2022-08-19T05:05:22.685Z,20.20
2022-08-19T05:07:50.862Z,20.20
2022-08-19T05:10:19.228Z,20.30
2022-08-19T05:12:47.973Z,20.30
2022-08-19T05:15:16.309Z,20.30
2022-08-19T05:18:04.865Z,20.20
2022-08-19T05:20:52.105Z,20.20
2022-08-19T05:23:22.945Z,20.20
2022-08-19T05:25:52.704Z,20.30
2022-08-19T05:28:21.382Z,20.50
2022-08-19T05:30:51.838Z,20.60
2022-08-19T05:33:24.343Z,20.60
2022-08-19T05:35:54.325Z,20.60
2022-08-19T05:38:22.597Z,20.70
2022-08-19T05:40:51.022Z,20.70
2022-08-19T05:43:19.702Z,20.60
2022-08-19T05:45:47.967Z,20.70
2022-08-19T05:48:21.867Z,20.60
2022-08-19T05:50:51.330Z,20.70
2022-08-19T05:53:21.307Z,20.60
2022-08-19T05:55:49.639Z,20.50
2022-08-19T05:58:18.405Z,20.60
2022-08-19T06:00:51.341Z,20.70
2022-08-19T06:03:19.748Z,20.80
2022-08-19T06:05:51.565Z,20.90
2022-08-19T06:08:33.921Z,21.00
2022-08-19T06:11:17.017Z,21.10
2022-08-19T06:13:50.518Z,21.20
2022-08-19T06:16:21.818Z,21.30
2022-08-19T06:18:52.658Z,21.30
2022-08-19T06:21:21.638Z,21.40
2022-08-19T06:23:52.693Z,21.50
2022-08-19T06:26:22.083Z,21.70
2022-08-19T06:28:51.396Z,21.80
2022-08-19T06:31:23.277Z,21.90
2022-08-19T06:33:51.794Z,21.90
2022-08-19T06:36:25.267Z,21.90
2022-08-19T06:38:56.276Z,21.90
2022-08-19T06:41:24.592Z,21.90
2022-08-19T06:43:54.152Z,21.80
2022-08-19T06:46:25.551Z,21.80
2022-08-19T06:48:55.447Z,21.70
2022-08-19T06:51:25.250Z,21.70
2022-08-19T06:53:59.058Z,21.80
2022-08-19T06:56:34.749Z,21.90
2022-08-19T06:59:03.911Z,21.90
2022-08-19T07:01:32.285Z,22.00
2022-08-19T07:04:02.594Z,22.00
2022-08-19T07:06:44.237Z,22.10
2022-08-19T07:09:18.759Z,22.20
2022-08-19T07:11:48.463Z,22.30
2022-08-19T07:14:20.058Z,22.50
2022-08-19T07:16:50.144Z,22.60
2022-08-19T07:19:20.421Z,22.80
2022-08-19T07:21:50.486Z,22.90
2022-08-19T07:24:20.639Z,23.10
2022-08-19T07:26:51.784Z,23.20
2022-08-19T07:29:25.661Z,23.40
2022-08-19T07:32:00.030Z,23.70
2022-08-19T07:34:29.798Z,23.90
2022-08-19T07:36:58.813Z,24.40
2022-08-19T07:39:32.172Z,24.80
2022-08-19T07:42:03.103Z,25.10
2022-08-19T07:44:31.707Z,25.60
2022-08-19T07:47:01.350Z,25.80
2022-08-19T07:49:30.570Z,26.10
2022-08-19T07:52:02.591Z,26.70
2022-08-19T07:54:36.625Z,27.00
2022-08-19T07:57:05.487Z,27.40
2022-08-19T07:59:34.750Z,27.80
2022-08-19T08:02:03.518Z,27.90
2022-08-19T08:04:50.994Z,28.10
2022-08-19T08:07:37.642Z,28.30
2022-08-19T08:10:14.809Z,28.50
2022-08-19T08:13:08.530Z,28.50
2022-08-19T08:15:42.654Z,28.70
2022-08-19T08:18:12.014Z,29.00
2022-08-19T08:20:41.186Z,29.50
2022-08-19T08:23:26.799Z,29.80
2022-08-19T08:25:58.851Z,29.80
2022-08-19T08:28:30.067Z,29.80
2022-08-19T08:30:59.770Z,30.00
2022-08-19T08:33:34.597Z,30.10
2022-08-19T08:36:04.248Z,30.20
2022-08-19T08:38:38.992Z,30.20
2022-08-19T08:41:21.267Z,30.90
2022-08-19T08:43:53.250Z,31.30
2022-08-19T08:46:30.523Z,31.50
2022-08-19T08:49:04.710Z,31.30
2022-08-19T08:51:39.295Z,31.60
2022-08-19T08:54:15.026Z,31.90
2022-08-19T08:56:47.386Z,32.00
2022-08-19T08:59:22.843Z,32.30
2022-08-19T09:01:51.723Z,32.10
2022-08-19T09:04:20.681Z,32.40
2022-08-19T09:06:55.642Z,32.50
2022-08-19T09:09:33.499Z,32.50
2022-08-19T09:12:13.474Z,32.70
2022-08-19T09:14:51.871Z,32.60
2022-08-19T09:17:32.226Z,32.50
2022-08-19T09:20:05.849Z,32.50
2022-08-19T09:22:38.350Z,32.70
2022-08-19T09:25:08.458Z,33.10
2022-08-19T09:27:43.174Z,33.40
2022-08-19T09:30:16.690Z,33.90
2022-08-19T09:32:46.586Z,34.20
2022-08-19T09:35:16.098Z,34.40
2022-08-19T09:37:45.103Z,34.50
2022-08-19T09:40:15.485Z,34.60
2022-08-19T09:42:50.134Z,34.60
2022-08-19T09:45:22.747Z,34.00
2022-08-19T09:47:54.174Z,33.90
2022-08-19T09:50:24.664Z,34.00
2022-08-19T09:52:57.202Z,34.40
2022-08-19T09:55:32.079Z,34.40
2022-08-19T09:58:05.206Z,33.60
2022-08-19T10:00:33.767Z,33.30
2022-08-19T10:03:02.489Z,33.80
2022-08-19T10:05:49.617Z,34.00
2022-08-19T10:08:20.719Z,33.90
2022-08-19T10:10:50.019Z,33.20
2022-08-19T10:13:23.115Z,33.20
2022-08-19T10:15:52.186Z,32.40
2022-08-19T10:18:22.191Z,32.80
2022-08-19T10:20:53.665Z,33.30
2022-08-19T10:23:22.781Z,34.60
2022-08-19T10:25:54.943Z,35.50
2022-08-19T10:28:25.061Z,36.40
2022-08-19T10:30:53.386Z,37.20
2022-08-19T10:33:38.693Z,36.90
2022-08-19T10:36:12.331Z,37.40
2022-08-19T10:38:50.340Z,38.00
2022-08-19T10:41:24.189Z,37.30
2022-08-19T10:43:55.752Z,37.30
2022-08-19T10:46:25.774Z,38.50
2022-08-19T10:48:54.895Z,38.50
2022-08-19T10:51:45.806Z,38.50
2022-08-19T10:54:16.795Z,38.50
2022-08-19T10:56:53.616Z,38.00
2022-08-19T10:59:31.429Z,37.80
2022-08-19T11:02:03.931Z,38.50
2022-08-19T11:04:33.002Z,39.30
2022-08-19T11:07:01.358Z,39.40
2022-08-19T11:09:33.888Z,38.70
2022-08-19T11:12:04.898Z,37.00
2022-08-19T11:14:36.724Z,36.80
2022-08-19T11:17:06.859Z,37.60
2022-08-19T11:19:35.781Z,37.40
2022-08-19T11:22:04.874Z,37.00
2022-08-19T11:24:33.927Z,34.30
2022-08-19T11:27:08.375Z,34.50
2022-08-19T11:29:40.852Z,36.70
2022-08-19T11:32:12.131Z,38.30
2022-08-19T11:34:40.830Z,38.10
2022-08-19T11:37:09.993Z,38.50
2022-08-19T11:39:39.907Z,36.90
2022-08-19T11:42:29.221Z,34.80
2022-08-19T11:44:59.318Z,33.70
2022-08-19T11:47:27.519Z,35.20
2022-08-19T11:49:55.789Z,37.20
2022-08-19T11:52:24.166Z,36.70
2022-08-19T11:54:52.443Z,36.80
2022-08-19T11:57:20.918Z,36.00
2022-08-19T11:59:54.007Z,36.00
2022-08-19T12:02:24.366Z,37.60
2022-08-19T12:04:52.687Z,38.70
2022-08-19T12:07:20.962Z,37.50
2022-08-19T12:09:49.522Z,36.80
2022-08-19T12:12:17.767Z,37.90
2022-08-19T12:14:47.821Z,38.40
2022-08-19T12:17:18.165Z,37.50
2022-08-19T12:19:47.730Z,37.00
2022-08-19T12:22:16.013Z,37.80
2022-08-19T12:24:44.648Z,37.10
2022-08-19T12:27:13.107Z,35.60
2022-08-19T12:29:49.141Z,34.00
2022-08-19T12:32:17.906Z,33.70
2022-08-19T12:34:48.307Z,35.00
2022-08-19T12:37:17.960Z,34.60
2022-08-19T12:39:47.262Z,33.70
2022-08-19T12:42:16.781Z,33.30
2022-08-19T12:44:46.318Z,33.70
2022-08-19T12:47:15.798Z,33.80
2022-08-19T12:49:53.760Z,33.60
2022-08-19T12:52:28.391Z,33.50
2022-08-19T12:54:58.640Z,34.10
2022-08-19T12:57:32.038Z,35.00
2022-08-19T13:00:04.875Z,35.30
2022-08-19T13:02:39.074Z,35.20
2022-08-19T13:05:10.295Z,34.30
2022-08-19T13:07:41.398Z,33.50
2022-08-19T13:10:12.156Z,33.20
2022-08-19T13:12:42.047Z,33.00
2022-08-19T13:15:11.986Z,32.80
2022-08-19T13:17:41.309Z,33.30
2022-08-19T13:20:11.389Z,33.40
2022-08-19T13:22:41.178Z,33.20
2022-08-19T13:25:11.114Z,32.70
2022-08-19T13:27:39.979Z,32.50
2022-08-19T13:30:29.627Z,32.50
2022-08-19T13:33:15.566Z,32.30
2022-08-19T13:35:48.497Z,32.10
2022-08-19T13:38:19.802Z,32.30
2022-08-19T13:40:50.790Z,32.20
2022-08-19T13:43:23.458Z,31.80
2022-08-19T13:45:54.167Z,31.50
2022-08-19T13:48:22.382Z,31.30
2022-08-19T13:50:50.590Z,31.10
2022-08-19T13:53:21.348Z,31.10
2022-08-19T13:55:51.521Z,31.30
2022-08-19T13:58:20.256Z,31.50
2022-08-19T14:00:50.918Z,31.80
2022-08-19T14:03:19.291Z,31.80
2022-08-19T14:05:48.306Z,31.70
2022-08-19T14:08:17.084Z,31.60
2022-08-19T14:10:47.576Z,31.40
2022-08-19T14:13:19.482Z,31.30
2022-08-19T14:15:48.345Z,31.30
2022-08-19T14:18:17.732Z,31.20
2022-08-19T14:20:47.052Z,31.00
2022-08-19T14:23:15.757Z,30.90
2022-08-19T14:25:44.446Z,30.80
2022-08-19T14:28:14.412Z,30.60
2022-08-19T14:30:42.997Z,30.50
2022-08-19T14:33:11.194Z,30.40
2022-08-19T14:35:40.253Z,30.20
2022-08-19T14:38:17.034Z,30.10
2022-08-19T14:40:46.051Z,30.00
2022-08-19T14:43:15.740Z,30.10
2022-08-19T14:45:46.646Z,30.10
2022-08-19T14:48:19.185Z,30.20
2022-08-19T14:50:48.330Z,30.40
2022-08-19T14:53:18.833Z,30.80
2022-08-19T14:55:48.587Z,31.00
2022-08-19T14:58:29.823Z,31.20
2022-08-19T15:01:00.319Z,31.40
2022-08-19T15:03:29.753Z,31.40
2022-08-19T15:05:58.922Z,31.30
2022-08-19T15:08:27.845Z,31.20
2022-08-19T15:10:56.839Z,31.10
2022-08-19T15:13:28.758Z,31.20
2022-08-19T15:15:58.214Z,31.10
2022-08-19T15:18:26.855Z,30.70
2022-08-19T15:20:55.973Z,30.80
2022-08-19T15:23:24.556Z,31.00
2022-08-19T15:25:56.595Z,31.00
2022-08-19T15:28:28.170Z,31.00
2022-08-19T15:30:56.390Z,30.70
2022-08-19T15:33:24.598Z,30.50
2022-08-19T15:35:54.019Z,30.30
2022-08-19T15:38:24.502Z,30.10
2022-08-19T15:40:53.499Z,29.90
2022-08-19T15:43:23.444Z,29.80
2022-08-19T15:45:53.094Z,29.60
2022-08-19T15:48:21.678Z,29.50
2022-08-19T15:50:50.576Z,29.50
2022-08-19T15:53:18.810Z,29.50
2022-08-19T15:55:48.610Z,29.50
2022-08-19T15:58:34.842Z,29.40
2022-08-19T16:01:24.127Z,29.30
2022-08-19T16:04:14.817Z,29.30
2022-08-19T16:06:46.505Z,29.30
2022-08-19T16:09:15.924Z,29.30
2022-08-19T16:11:46.401Z,29.30
2022-08-19T16:14:15.157Z,29.20
2022-08-19T16:16:47.362Z,29.20
2022-08-19T16:19:17.437Z,29.20
2022-08-19T16:21:48.076Z,29.30
2022-08-19T16:24:19.073Z,29.20
2022-08-19T16:26:48.256Z,29.10
2022-08-19T16:29:33.440Z,29.10
2022-08-19T16:32:06.656Z,29.00
2022-08-19T16:34:35.002Z,28.90
2022-08-19T16:37:03.314Z,28.80
2022-08-19T16:39:31.655Z,28.70
2022-08-19T16:42:01.082Z,28.60
2022-08-19T16:44:30.088Z,28.50
2022-08-19T16:46:59.663Z,28.40
2022-08-19T16:49:54.165Z,28.30
2022-08-19T16:52:20.407Z,28.30
2022-08-19T16:54:49.859Z,28.20
2022-08-19T16:57:18.503Z,28.10
2022-08-19T16:59:48.955Z,28.00
2022-08-19T17:02:18.787Z,27.90
2022-08-19T17:04:57.666Z,27.80
2022-08-19T17:07:27.330Z,27.70
2022-08-19T17:09:56.062Z,27.60
2022-08-19T17:12:29.055Z,27.60
2022-08-19T17:15:00.832Z,27.40
2022-08-19T17:17:29.793Z,27.40
2022-08-19T17:20:00.456Z,27.20
2022-08-19T17:22:30.051Z,27.10
2022-08-19T17:24:58.775Z,27.00
2022-08-19T17:27:31.325Z,26.90
2022-08-19T17:30:02.606Z,26.80
2022-08-19T17:32:33.382Z,26.70
2022-08-19T17:35:05.239Z,26.70
2022-08-19T17:37:35.008Z,26.60
2022-08-19T17:40:03.484Z,26.50
2022-08-19T17:42:32.167Z,26.40
2022-08-19T17:45:00.792Z,26.30
2022-08-19T17:47:29.779Z,26.30
2022-08-19T17:49:58.222Z,26.20
2022-08-19T17:52:28.068Z,26.10
2022-08-19T17:54:56.522Z,26.00
2022-08-19T17:57:25.301Z,26.00
2022-08-19T17:59:54.200Z,25.90
2022-08-19T18:02:22.518Z,25.80
2022-08-19T18:04:51.189Z,25.70
2022-08-19T18:07:21.708Z,25.70
2022-08-19T18:09:53.138Z,25.60
2022-08-19T18:12:24.713Z,25.50
2022-08-19T18:14:53.885Z,25.50
2022-08-19T18:17:24.450Z,25.30
2022-08-19T18:19:52.890Z,25.20
2022-08-19T18:22:27.587Z,25.10
2022-08-19T18:24:58.309Z,25.10
2022-08-19T18:27:27.792Z,25.00
2022-08-19T18:29:59.957Z,25.00
2022-08-19T18:32:31.672Z,24.90
2022-08-19T18:35:02.507Z,24.80
2022-08-19T18:37:31.129Z,24.70
2022-08-19T18:40:18.134Z,24.70
2022-08-19T18:43:05.182Z,24.60
2022-08-19T18:45:51.587Z,24.60
2022-08-19T18:48:37.618Z,24.50
2022-08-19T18:51:06.724Z,24.50
2022-08-19T18:53:38.081Z,24.40
2022-08-19T18:56:09.447Z,24.30
2022-08-19T18:58:39.271Z,24.30
2022-08-19T19:01:11.918Z,24.30
2022-08-19T19:03:43.680Z,24.20
2022-08-19T19:06:15.338Z,24.20
2022-08-19T19:08:44.058Z,24.10
2022-08-19T19:11:13.962Z,24.10
2022-08-19T19:13:46.741Z,24.10
2022-08-19T19:16:15.708Z,24.00
2022-08-19T19:18:44.654Z,24.00
2022-08-19T19:21:13.470Z,24.00
2022-08-19T19:23:42.477Z,23.90
2022-08-19T19:26:12.208Z,23.90
2022-08-19T19:28:45.660Z,23.80
2022-08-19T19:31:16.114Z,23.70
2022-08-19T19:33:45.521Z,23.70
2022-08-19T19:36:14.614Z,23.70
2022-08-19T19:38:48.714Z,23.70
2022-08-19T19:41:19.950Z,23.60
2022-08-19T19:44:04.605Z,23.60
2022-08-19T19:46:39.889Z,23.60
2022-08-19T19:49:08.243Z,23.50
2022-08-19T19:51:39.546Z,23.50
2022-08-19T19:54:13.654Z,23.40
2022-08-19T19:56:46.136Z,23.40
2022-08-19T19:59:16.255Z,23.40
2022-08-19T20:01:46.988Z,23.30
2022-08-19T20:04:16.540Z,23.40
2022-08-19T20:06:46.055Z,23.30
2022-08-19T20:09:19.480Z,23.30
2022-08-19T20:11:50.360Z,23.20
2022-08-19T20:14:26.269Z,23.20
2022-08-19T20:16:55.698Z,23.20
2022-08-19T20:19:27.558Z,23.10
2022-08-19T20:21:57.586Z,23.00
2022-08-19T20:24:32.711Z,23.00
2022-08-19T20:27:01.581Z,22.90
2022-08-19T20:29:39.196Z,22.90
2022-08-19T20:32:09.009Z,22.80
2022-08-19T20:34:40.705Z,22.80
2022-08-19T20:37:10.031Z,22.80
2022-08-19T20:39:38.542Z,22.70
2022-08-19T20:42:07.142Z,22.70
2022-08-19T20:44:37.204Z,22.70
2022-08-19T20:47:06.117Z,22.70
2022-08-19T20:49:35.250Z,22.70
2022-08-19T20:52:05.158Z,22.60
2022-08-19T20:54:34.371Z,22.60
2022-08-19T20:57:03.805Z,22.50
2022-08-19T20:59:32.098Z,22.50
2022-08-19T21:02:01.830Z,22.50
2022-08-19T21:04:30.260Z,22.40
2022-08-19T21:06:58.803Z,22.40
2022-08-19T21:09:27.106Z,22.40
2022-08-19T21:11:55.462Z,22.40
2022-08-19T21:14:23.974Z,22.40
2022-08-19T21:16:52.519Z,22.30
2022-08-19T21:19:24.122Z,22.30
2022-08-19T21:21:53.479Z,22.20
2022-08-19T21:24:22.084Z,22.20
2022-08-19T21:26:57.390Z,22.10
2022-08-19T21:29:26.091Z,22.10
2022-08-19T21:31:54.298Z,22.00
2022-08-19T21:34:24.078Z,22.00
2022-08-19T21:36:52.684Z,22.00
2022-08-19T21:39:20.920Z,22.00
2022-08-19T21:41:49.502Z,22.00
2022-08-19T21:44:18.026Z,21.90
2022-08-19T21:46:50.278Z,21.90
2022-08-19T21:49:19.864Z,21.90
2022-08-19T21:51:49.895Z,21.90
2022-08-19T21:54:18.150Z,21.80
2022-08-19T21:56:47.507Z,21.80
2022-08-19T21:59:16.930Z,21.80
2022-08-19T22:01:49.686Z,21.70
2022-08-19T22:04:20.792Z,21.70
2022-08-19T22:06:50.833Z,21.70
2022-08-19T22:09:19.068Z,21.70
2022-08-19T22:11:47.686Z,21.70
2022-08-19T22:14:16.287Z,21.60
2022-08-19T22:16:47.381Z,21.70
2022-08-19T22:19:15.722Z,21.80
2022-08-19T22:21:44.386Z,21.90
2022-08-19T22:24:14.005Z,22.00
2022-08-19T22:26:42.416Z,22.00
2022-08-19T22:29:10.944Z,22.10
2022-08-19T22:31:44.221Z,22.10
2022-08-19T22:34:12.729Z,22.10
2022-08-19T22:36:40.953Z,22.10
2022-08-19T22:39:10.244Z,22.10
2022-08-19T22:41:40.882Z,22.10
2022-08-19T22:44:11.583Z,22.00
2022-08-19T22:46:40.213Z,22.00
2022-08-19T22:49:08.533Z,22.10
2022-08-19T22:51:54.879Z,22.00
2022-08-19T22:54:23.398Z,22.00
2022-08-19T22:56:53.463Z,22.00
2022-08-19T22:59:22.889Z,21.90
2022-08-19T23:01:51.619Z,21.90
2022-08-19T23:04:19.953Z,21.90
2022-08-19T23:06:48.269Z,21.90
2022-08-19T23:09:17.181Z,21.90
2022-08-19T23:11:46.335Z,21.90
2022-08-19T23:14:17.760Z,21.90
2022-08-19T23:16:51.010Z,21.80
2022-08-19T23:19:20.781Z,21.80
2022-08-19T23:21:49.366Z,21.90
2022-08-19T23:24:17.610Z,21.90
2022-08-19T23:26:59.852Z,21.90
2022-08-19T23:29:48.506Z,21.90
2022-08-19T23:32:17.737Z,21.80
2022-08-19T23:34:46.569Z,21.80
2022-08-19T23:37:15.062Z,21.90
2022-08-19T23:39:43.784Z,21.80
2022-08-19T23:42:14.609Z,21.80
2022-08-19T23:44:51.512Z,21.90
2022-08-19T23:47:23.929Z,21.80
2022-08-19T23:49:53.101Z,21.80
2022-08-19T23:52:21.502Z,21.80
2022-08-19T23:54:50.027Z,21.70
2022-08-19T23:57:18.407Z,21.70
2022-08-19T23:59:48.001Z,21.70
